sensor_id;sensor_type;location;lat;lon;timestamp;temperature;humidity
21635;DHT22;10979;48.306;9.830;2022-10-16T00:00:41;11.50;99.90
21635;DHT22;10979;48.306;9.830;2022-10-16T00:03:08;11.50;99.90
21635;DHT22;10979;48.306;9.830;2022-10-16T00:05:41;11.50;99.90
21635;DHT22;10979;48.306;9.830;2022-10-16T00:08:08;11.50;99.90
21635;DHT22;10979;48.306;9.830;2022-10-16T00:10:34;11.60;99.90
21635;DHT22;10979;48.306;9.830;2022-10-16T00:13:00;11.50;99.90
21635;DHT22;10979;48.306;9.830;2022-10-16T00:15:25;11.40;99.90
21635;DHT22;10979;48.306;9.830;2022-10-16T00:17:51;11.40;99.90
21635;DHT22;10979;48.306;9.830;2022-10-16T00:20:16;11.40;99.90
21635;DHT22;10979;48.306;9.830;2022-10-16T00:22:42;11.40;99.90
21635;DHT22;10979;48.306;9.830;2022-10-16T00:25:08;11.40;99.90
21635;DHT22;10979;48.306;9.830;2022-10-16T00:27:34;11.40;99.90
21635;DHT22;10979;48.306;9.830;2022-10-16T00:29:59;11.30;99.90
21635;DHT22;10979;48.306;9.830;2022-10-16T00:32:25;11.30;99.90
21635;DHT22;10979;48.306;9.830;2022-10-16T00:50:30;11.10;99.90
21635;DHT22;10979;48.306;9.830;2022-10-16T00:52:57;11.00;99.90
21635;DHT22;10979;48.306;9.830;2022-10-16T00:55:24;10.90;99.90
21635;DHT22;10979;48.306;9.830;2022-10-16T00:57:50;11.00;99.90
21635;DHT22;10979;48.306;9.830;2022-10-16T01:00:19;11.10;99.90
21635;DHT22;10979;48.306;9.830;2022-10-16T01:03:00;11.00;99.90
21635;DHT22;10979;48.306;9.830;2022-10-16T01:05:44;11.10;99.90
21635;DHT22;10979;48.306;9.830;2022-10-16T01:08:21;11.00;99.90
21635;DHT22;10979;48.306;9.830;2022-10-16T01:10:57;11.00;99.90
21635;DHT22;10979;48.306;9.830;2022-10-16T01:13:30;11.00;99.90
21635;DHT22;10979;48.306;9.830;2022-10-16T01:18:47;11.00;99.90
21635;DHT22;10979;48.306;9.830;2022-10-16T01:21:22;11.00;99.90
21635;DHT22;10979;48.306;9.830;2022-10-16T01:24:07;11.10;99.90
21635;DHT22;10979;48.306;9.830;2022-10-16T01:27:07;11.10;99.90
21635;DHT22;10979;48.306;9.830;2022-10-16T01:32:31;11.10;99.90
21635;DHT22;10979;48.306;9.830;2022-10-16T01:35:04;11.10;99.90
21635;DHT22;10979;48.306;9.830;2022-10-16T01:37:48;11.10;99.90
21635;DHT22;10979;48.306;9.830;2022-10-16T01:40:17;11.20;99.90
21635;DHT22;10979;48.306;9.830;2022-10-16T01:42:47;11.30;99.90
21635;DHT22;10979;48.306;9.830;2022-10-16T01:45:15;11.10;99.90
21635;DHT22;10979;48.306;9.830;2022-10-16T01:47:44;11.10;99.90
21635;DHT22;10979;48.306;9.830;2022-10-16T01:50:12;11.20;99.90
21635;DHT22;10979;48.306;9.830;2022-10-16T01:52:41;11.20;99.90
21635;DHT22;10979;48.306;9.830;2022-10-16T01:55:09;11.20;99.90
21635;DHT22;10979;48.306;9.830;2022-10-16T01:57:38;11.20;99.90
21635;DHT22;10979;48.306;9.830;2022-10-16T02:00:10;11.10;99.90
21635;DHT22;10979;48.306;9.830;2022-10-16T02:02:39;11.10;99.90
21635;DHT22;10979;48.306;9.830;2022-10-16T02:05:29;11.20;99.90
21635;DHT22;10979;48.306;9.830;2022-10-16T02:07:55;11.20;99.90
21635;DHT22;10979;48.306;9.830;2022-10-16T02:10:22;11.20;99.90
21635;DHT22;10979;48.306;9.830;2022-10-16T02:13:03;11.30;99.90
21635;DHT22;10979;48.306;9.830;2022-10-16T02:15:31;11.30;99.90
21635;DHT22;10979;48.306;9.830;2022-10-16T02:17:56;11.30;99.90
21635;DHT22;10979;48.306;9.830;2022-10-16T02:20:26;11.30;99.90
21635;DHT22;10979;48.306;9.830;2022-10-16T02:22:54;11.30;99.90
21635;DHT22;10979;48.306;9.830;2022-10-16T02:25:31;11.30;99.90
21635;DHT22;10979;48.306;9.830;2022-10-16T02:28:08;11.40;99.90
21635;DHT22;10979;48.306;9.830;2022-10-16T02:31:01;11.30;99.90
21635;DHT22;10979;48.306;9.830;2022-10-16T02:33:29;11.40;99.90
21635;DHT22;10979;48.306;9.830;2022-10-16T02:35:57;11.40;99.90
21635;DHT22;10979;48.306;9.830;2022-10-16T02:38:23;11.40;99.90
21635;DHT22;10979;48.306;9.830;2022-10-16T02:40:49;11.40;99.90
21635;DHT22;10979;48.306;9.830;2022-10-16T02:43:16;11.40;99.90
21635;DHT22;10979;48.306;9.830;2022-10-16T02:45:41;11.40;99.90
21635;DHT22;10979;48.306;9.830;2022-10-16T02:48:07;11.40;99.90
21635;DHT22;10979;48.306;9.830;2022-10-16T02:50:33;11.40;99.90
21635;DHT22;10979;48.306;9.830;2022-10-16T02:52:58;11.40;99.90
21635;DHT22;10979;48.306;9.830;2022-10-16T02:55:24;11.40;99.90
21635;DHT22;10979;48.306;9.830;2022-10-16T02:57:49;11.40;99.90
21635;DHT22;10979;48.306;9.830;2022-10-16T03:00:17;11.40;99.90
21635;DHT22;10979;48.306;9.830;2022-10-16T03:02:43;11.40;99.90
21635;DHT22;10979;48.306;9.830;2022-10-16T03:05:09;11.40;99.90
21635;DHT22;10979;48.306;9.830;2022-10-16T03:07:35;11.40;99.90
21635;DHT22;10979;48.306;9.830;2022-10-16T03:10:01;11.40;99.90
21635;DHT22;10979;48.306;9.830;2022-10-16T03:12:29;11.50;99.90
21635;DHT22;10979;48.306;9.830;2022-10-16T03:14:55;11.50;99.90
21635;DHT22;10979;48.306;9.830;2022-10-16T03:17:22;11.40;99.90
21635;DHT22;10979;48.306;9.830;2022-10-16T03:19:48;11.40;99.90
21635;DHT22;10979;48.306;9.830;2022-10-16T03:22:13;11.40;99.90
21635;DHT22;10979;48.306;9.830;2022-10-16T03:24:39;11.40;99.90
21635;DHT22;10979;48.306;9.830;2022-10-16T03:27:04;11.40;99.90
21635;DHT22;10979;48.306;9.830;2022-10-16T03:29:30;11.40;99.90
21635;DHT22;10979;48.306;9.830;2022-10-16T03:31:57;11.40;99.90
21635;DHT22;10979;48.306;9.830;2022-10-16T03:34:23;11.30;99.90
21635;DHT22;10979;48.306;9.830;2022-10-16T03:36:48;11.30;99.90
21635;DHT22;10979;48.306;9.830;2022-10-16T03:39:14;11.20;99.90
21635;DHT22;10979;48.306;9.830;2022-10-16T03:41:39;11.20;99.90
21635;DHT22;10979;48.306;9.830;2022-10-16T03:44:05;11.20;99.90
21635;DHT22;10979;48.306;9.830;2022-10-16T03:46:31;11.30;99.90
21635;DHT22;10979;48.306;9.830;2022-10-16T03:48:56;11.30;99.90
21635;DHT22;10979;48.306;9.830;2022-10-16T03:51:22;11.30;99.90
21635;DHT22;10979;48.306;9.830;2022-10-16T03:53:47;11.10;99.90
21635;DHT22;10979;48.306;9.830;2022-10-16T03:56:13;11.00;99.90
21635;DHT22;10979;48.306;9.830;2022-10-16T03:58:38;11.10;99.90
21635;DHT22;10979;48.306;9.830;2022-10-16T04:01:04;11.00;99.90
21635;DHT22;10979;48.306;9.830;2022-10-16T04:03:30;11.00;99.90
21635;DHT22;10979;48.306;9.830;2022-10-16T04:05:55;11.00;99.90
21635;DHT22;10979;48.306;9.830;2022-10-16T04:08:21;11.00;99.90
21635;DHT22;10979;48.306;9.830;2022-10-16T04:10:47;10.90;99.90
21635;DHT22;10979;48.306;9.830;2022-10-16T04:13:12;10.90;99.90
21635;DHT22;10979;48.306;9.830;2022-10-16T04:15:38;10.80;99.90
21635;DHT22;10979;48.306;9.830;2022-10-16T04:21:26;10.80;99.90
21635;DHT22;10979;48.306;9.830;2022-10-16T04:23:51;10.70;99.90
21635;DHT22;10979;48.306;9.830;2022-10-16T04:26:17;10.70;99.90
21635;DHT22;10979;48.306;9.830;2022-10-16T04:28:42;10.70;99.90
21635;DHT22;10979;48.306;9.830;2022-10-16T04:31:08;10.70;99.90
21635;DHT22;10979;48.306;9.830;2022-10-16T04:33:34;10.70;99.90
21635;DHT22;10979;48.306;9.830;2022-10-16T04:36:00;10.70;99.90
21635;DHT22;10979;48.306;9.830;2022-10-16T04:38:26;10.70;99.90
21635;DHT22;10979;48.306;9.830;2022-10-16T04:40:52;10.70;99.90
21635;DHT22;10979;48.306;9.830;2022-10-16T04:43:18;10.80;99.90
21635;DHT22;10979;48.306;9.830;2022-10-16T04:45:44;10.70;99.90
21635;DHT22;10979;48.306;9.830;2022-10-16T04:48:09;10.70;99.90
21635;DHT22;10979;48.306;9.830;2022-10-16T04:50:35;10.70;99.90
21635;DHT22;10979;48.306;9.830;2022-10-16T04:53:01;10.70;99.90
21635;DHT22;10979;48.306;9.830;2022-10-16T04:55:26;10.60;99.90
21635;DHT22;10979;48.306;9.830;2022-10-16T04:57:52;10.60;99.90
21635;DHT22;10979;48.306;9.830;2022-10-16T05:00:18;10.50;99.90
21635;DHT22;10979;48.306;9.830;2022-10-16T05:06:06;10.60;99.90
21635;DHT22;10979;48.306;9.830;2022-10-16T05:08:32;10.60;99.90
21635;DHT22;10979;48.306;9.830;2022-10-16T05:10:58;10.60;99.90
21635;DHT22;10979;48.306;9.830;2022-10-16T05:13:23;10.40;99.90
21635;DHT22;10979;48.306;9.830;2022-10-16T05:15:49;10.50;99.90
21635;DHT22;10979;48.306;9.830;2022-10-16T05:18:15;10.50;99.90
21635;DHT22;10979;48.306;9.830;2022-10-16T05:20:41;10.50;99.90
21635;DHT22;10979;48.306;9.830;2022-10-16T05:23:07;10.50;99.90
21635;DHT22;10979;48.306;9.830;2022-10-16T05:25:35;10.40;99.90
21635;DHT22;10979;48.306;9.830;2022-10-16T05:28:01;10.40;99.90
21635;DHT22;10979;48.306;9.830;2022-10-16T05:30:26;10.50;99.90
21635;DHT22;10979;48.306;9.830;2022-10-16T05:32:52;10.50;99.90
21635;DHT22;10979;48.306;9.830;2022-10-16T05:35:18;10.60;99.90
21635;DHT22;10979;48.306;9.830;2022-10-16T05:37:44;10.60;99.90
21635;DHT22;10979;48.306;9.830;2022-10-16T05:40:10;10.50;99.90
21635;DHT22;10979;48.306;9.830;2022-10-16T05:42:37;10.60;99.90
21635;DHT22;10979;48.306;9.830;2022-10-16T05:45:03;10.60;99.90
21635;DHT22;10979;48.306;9.830;2022-10-16T05:47:29;10.70;99.90
21635;DHT22;10979;48.306;9.830;2022-10-16T05:49:55;10.70;99.90
21635;DHT22;10979;48.306;9.830;2022-10-16T05:52:20;10.70;99.90
21635;DHT22;10979;48.306;9.830;2022-10-16T05:54:46;10.70;99.90
21635;DHT22;10979;48.306;9.830;2022-10-16T05:57:11;10.80;99.90
21635;DHT22;10979;48.306;9.830;2022-10-16T05:59:37;10.80;99.90
21635;DHT22;10979;48.306;9.830;2022-10-16T06:02:03;10.80;99.90
21635;DHT22;10979;48.306;9.830;2022-10-16T06:04:28;10.80;99.90
21635;DHT22;10979;48.306;9.830;2022-10-16T06:06:54;10.90;99.90
21635;DHT22;10979;48.306;9.830;2022-10-16T06:09:22;11.00;99.90
21635;DHT22;10979;48.306;9.830;2022-10-16T06:11:48;11.00;99.90
21635;DHT22;10979;48.306;9.830;2022-10-16T06:14:14;11.00;99.90
21635;DHT22;10979;48.306;9.830;2022-10-16T06:16:39;11.00;99.90
21635;DHT22;10979;48.306;9.830;2022-10-16T06:19:05;11.10;99.90
21635;DHT22;10979;48.306;9.830;2022-10-16T06:21:34;11.30;99.90
21635;DHT22;10979;48.306;9.830;2022-10-16T06:24:00;11.30;99.90
21635;DHT22;10979;48.306;9.830;2022-10-16T06:26:28;11.30;99.90
21635;DHT22;10979;48.306;9.830;2022-10-16T06:28:55;11.40;99.90
21635;DHT22;10979;48.306;9.830;2022-10-16T06:31:21;11.50;99.90
21635;DHT22;10979;48.306;9.830;2022-10-16T06:33:50;11.60;99.90
21635;DHT22;10979;48.306;9.830;2022-10-16T06:36:17;11.70;99.90
21635;DHT22;10979;48.306;9.830;2022-10-16T06:38:43;11.80;99.90
21635;DHT22;10979;48.306;9.830;2022-10-16T06:47:34;12.10;99.90
21635;DHT22;10979;48.306;9.830;2022-10-16T06:50:00;12.30;99.90
21635;DHT22;10979;48.306;9.830;2022-10-16T06:52:27;12.40;99.90
21635;DHT22;10979;48.306;9.830;2022-10-16T06:54:53;12.50;99.90
21635;DHT22;10979;48.306;9.830;2022-10-16T06:57:18;12.70;99.90
21635;DHT22;10979;48.306;9.830;2022-10-16T06:59:44;12.70;99.90
21635;DHT22;10979;48.306;9.830;2022-10-16T07:02:10;12.90;99.90
21635;DHT22;10979;48.306;9.830;2022-10-16T07:04:36;13.20;99.90
21635;DHT22;10979;48.306;9.830;2022-10-16T07:07:01;13.30;99.90
21635;DHT22;10979;48.306;9.830;2022-10-16T07:09:27;13.50;99.90
21635;DHT22;10979;48.306;9.830;2022-10-16T07:11:53;13.60;99.90
21635;DHT22;10979;48.306;9.830;2022-10-16T07:14:21;13.70;99.90
21635;DHT22;10979;48.306;9.830;2022-10-16T07:16:47;13.70;99.90
21635;DHT22;10979;48.306;9.830;2022-10-16T07:19:14;13.70;99.90
21635;DHT22;10979;48.306;9.830;2022-10-16T07:21:41;13.80;99.90
21635;DHT22;10979;48.306;9.830;2022-10-16T07:24:11;14.10;99.90
21635;DHT22;10979;48.306;9.830;2022-10-16T07:26:38;14.30;99.90
21635;DHT22;10979;48.306;9.830;2022-10-16T07:29:22;14.30;99.90
21635;DHT22;10979;48.306;9.830;2022-10-16T07:31:49;14.40;99.90
21635;DHT22;10979;48.306;9.830;2022-10-16T07:34:16;14.20;99.90
21635;DHT22;10979;48.306;9.830;2022-10-16T07:36:42;14.00;99.90
21635;DHT22;10979;48.306;9.830;2022-10-16T07:39:08;14.00;99.90
21635;DHT22;10979;48.306;9.830;2022-10-16T07:41:33;14.10;99.90
21635;DHT22;10979;48.306;9.830;2022-10-16T07:44:02;14.10;99.90
21635;DHT22;10979;48.306;9.830;2022-10-16T07:46:28;14.20;99.90
21635;DHT22;10979;48.306;9.830;2022-10-16T07:48:54;14.30;99.90
21635;DHT22;10979;48.306;9.830;2022-10-16T07:51:21;14.30;99.90
21635;DHT22;10979;48.306;9.830;2022-10-16T07:53:48;14.30;99.90
21635;DHT22;10979;48.306;9.830;2022-10-16T07:56:14;14.20;99.90
21635;DHT22;10979;48.306;9.830;2022-10-16T07:58:40;14.20;99.90
21635;DHT22;10979;48.306;9.830;2022-10-16T08:01:07;14.40;99.90
21635;DHT22;10979;48.306;9.830;2022-10-16T08:03:33;14.30;99.90
21635;DHT22;10979;48.306;9.830;2022-10-16T08:06:00;14.40;99.90
21635;DHT22;10979;48.306;9.830;2022-10-16T08:08:26;14.50;99.90
21635;DHT22;10979;48.306;9.830;2022-10-16T08:10:52;14.60;99.90
21635;DHT22;10979;48.306;9.830;2022-10-16T08:13:18;14.60;99.90
21635;DHT22;10979;48.306;9.830;2022-10-16T08:15:44;14.60;99.90
21635;DHT22;10979;48.306;9.830;2022-10-16T08:18:11;14.70;99.90
21635;DHT22;10979;48.306;9.830;2022-10-16T08:20:37;14.80;99.90
21635;DHT22;10979;48.306;9.830;2022-10-16T08:23:03;14.90;99.90
21635;DHT22;10979;48.306;9.830;2022-10-16T08:25:31;14.90;99.90
21635;DHT22;10979;48.306;9.830;2022-10-16T08:27:59;15.00;99.90
21635;DHT22;10979;48.306;9.830;2022-10-16T08:30:25;14.90;99.90
21635;DHT22;10979;48.306;9.830;2022-10-16T08:32:50;15.00;99.90
21635;DHT22;10979;48.306;9.830;2022-10-16T08:35:16;15.10;99.90
21635;DHT22;10979;48.306;9.830;2022-10-16T08:37:42;15.30;99.90
21635;DHT22;10979;48.306;9.830;2022-10-16T08:40:27;15.50;99.90
21635;DHT22;10979;48.306;9.830;2022-10-16T08:48:54;15.30;99.90
21635;DHT22;10979;48.306;9.830;2022-10-16T08:51:22;15.60;99.90
21635;DHT22;10979;48.306;9.830;2022-10-16T08:56:22;15.60;99.90
21635;DHT22;10979;48.306;9.830;2022-10-16T08:58:48;15.80;99.90
21635;DHT22;10979;48.306;9.830;2022-10-16T09:01:16;15.90;99.90
21635;DHT22;10979;48.306;9.830;2022-10-16T09:12:31;16.20;99.90
21635;DHT22;10979;48.306;9.830;2022-10-16T09:20:51;16.30;99.90
21635;DHT22;10979;48.306;9.830;2022-10-16T09:23:26;16.40;99.90
21635;DHT22;10979;48.306;9.830;2022-10-16T09:25:53;16.80;99.90
21635;DHT22;10979;48.306;9.830;2022-10-16T09:28:19;16.60;99.90
21635;DHT22;10979;48.306;9.830;2022-10-16T09:30:45;16.60;99.90
21635;DHT22;10979;48.306;9.830;2022-10-16T09:33:14;16.80;99.90
21635;DHT22;10979;48.306;9.830;2022-10-16T09:35:44;16.80;99.90
21635;DHT22;10979;48.306;9.830;2022-10-16T09:38:22;17.00;99.90
21635;DHT22;10979;48.306;9.830;2022-10-16T09:40:48;17.30;99.90
21635;DHT22;10979;48.306;9.830;2022-10-16T09:43:34;17.70;99.90
21635;DHT22;10979;48.306;9.830;2022-10-16T09:46:01;18.00;99.90
21635;DHT22;10979;48.306;9.830;2022-10-16T09:48:36;18.00;99.90
21635;DHT22;10979;48.306;9.830;2022-10-16T09:51:03;18.20;99.90
21635;DHT22;10979;48.306;9.830;2022-10-16T09:53:44;19.00;99.90
21635;DHT22;10979;48.306;9.830;2022-10-16T09:56:20;19.40;99.90
21635;DHT22;10979;48.306;9.830;2022-10-16T09:58:57;18.90;99.90
21635;DHT22;10979;48.306;9.830;2022-10-16T10:01:32;18.20;99.90
21635;DHT22;10979;48.306;9.830;2022-10-16T10:04:01;17.80;99.90
21635;DHT22;10979;48.306;9.830;2022-10-16T10:06:30;17.80;99.90
21635;DHT22;10979;48.306;9.830;2022-10-16T10:09:05;17.70;99.90
21635;DHT22;10979;48.306;9.830;2022-10-16T10:14:38;18.00;99.90
21635;DHT22;10979;48.306;9.830;2022-10-16T10:19:46;18.40;99.90
21635;DHT22;10979;48.306;9.830;2022-10-16T10:22:39;18.60;99.90
21635;DHT22;10979;48.306;9.830;2022-10-16T10:33:31;19.00;99.90
21635;DHT22;10979;48.306;9.830;2022-10-16T10:36:38;18.90;99.90
21635;DHT22;10979;48.306;9.830;2022-10-16T10:39:25;19.00;99.90
21635;DHT22;10979;48.306;9.830;2022-10-16T10:42:23;19.00;99.90
21635;DHT22;10979;48.306;9.830;2022-10-16T10:47:42;19.00;99.90
21635;DHT22;10979;48.306;9.830;2022-10-16T10:53:24;18.80;99.90
21635;DHT22;10979;48.306;9.830;2022-10-16T11:01:17;18.80;99.90
21635;DHT22;10979;48.306;9.830;2022-10-16T11:03:55;19.00;99.90
21635;DHT22;10979;48.306;9.830;2022-10-16T11:06:33;19.10;99.90
21635;DHT22;10979;48.306;9.830;2022-10-16T11:15:00;19.70;99.90
21635;DHT22;10979;48.306;9.830;2022-10-16T11:17:33;19.90;99.90
21635;DHT22;10979;48.306;9.830;2022-10-16T11:20:30;19.80;99.90
21635;DHT22;10979;48.306;9.830;2022-10-16T11:25:45;19.80;99.90
21635;DHT22;10979;48.306;9.830;2022-10-16T11:30:52;19.70;99.90
21635;DHT22;10979;48.306;9.830;2022-10-16T11:36:34;19.70;99.90
21635;DHT22;10979;48.306;9.830;2022-10-16T11:39:24;20.00;99.90
21635;DHT22;10979;48.306;9.830;2022-10-16T11:42:04;20.10;99.90
21635;DHT22;10979;48.306;9.830;2022-10-16T11:50:02;20.20;99.90
21635;DHT22;10979;48.306;9.830;2022-10-16T11:55:42;19.90;99.90
21635;DHT22;10979;48.306;9.830;2022-10-16T12:00:56;19.90;99.90
21635;DHT22;10979;48.306;9.830;2022-10-16T12:06:40;20.00;99.90
21635;DHT22;10979;48.306;9.830;2022-10-16T12:09:36;19.80;99.90
21635;DHT22;10979;48.306;9.830;2022-10-16T12:12:03;19.80;99.90
21635;DHT22;10979;48.306;9.830;2022-10-16T12:20:38;19.80;99.90
21635;DHT22;10979;48.306;9.830;2022-10-16T12:23:16;20.20;99.90
21635;DHT22;10979;48.306;9.830;2022-10-16T12:25:54;19.90;99.90
21635;DHT22;10979;48.306;9.830;2022-10-16T12:28:22;19.90;99.90
21635;DHT22;10979;48.306;9.830;2022-10-16T12:31:01;20.10;99.90
21635;DHT22;10979;48.306;9.830;2022-10-16T12:33:57;20.10;99.90
21635;DHT22;10979;48.306;9.830;2022-10-16T12:36:29;20.40;99.90
21635;DHT22;10979;48.306;9.830;2022-10-16T12:38:55;20.30;99.90
21635;DHT22;10979;48.306;9.830;2022-10-16T12:41:29;20.20;99.90
21635;DHT22;10979;48.306;9.830;2022-10-16T12:43:56;20.10;99.90
21635;DHT22;10979;48.306;9.830;2022-10-16T12:46:23;20.20;99.90
21635;DHT22;10979;48.306;9.830;2022-10-16T12:48:49;20.20;99.90
21635;DHT22;10979;48.306;9.830;2022-10-16T12:51:25;20.50;99.90
21635;DHT22;10979;48.306;9.830;2022-10-16T12:56:58;20.70;99.90
21635;DHT22;10979;48.306;9.830;2022-10-16T12:59:52;20.60;99.90
21635;DHT22;10979;48.306;9.830;2022-10-16T13:02:34;20.40;99.90
21635;DHT22;10979;48.306;9.830;2022-10-16T13:05:46;20.60;99.90
21635;DHT22;10979;48.306;9.830;2022-10-16T13:28:08;20.50;99.90
21635;DHT22;10979;48.306;9.830;2022-10-16T13:33:13;20.80;99.90
21635;DHT22;10979;48.306;9.830;2022-10-16T13:35:51;20.90;99.90
21635;DHT22;10979;48.306;9.830;2022-10-16T13:38:20;21.00;99.90
21635;DHT22;10979;48.306;9.830;2022-10-16T13:41:05;21.20;99.90
21635;DHT22;10979;48.306;9.830;2022-10-16T13:46:10;21.00;99.90
21635;DHT22;10979;48.306;9.830;2022-10-16T13:48:37;20.90;99.90
21635;DHT22;10979;48.306;9.830;2022-10-16T13:51:12;20.80;99.90
21635;DHT22;10979;48.306;9.830;2022-10-16T13:53:39;20.80;99.90
21635;DHT22;10979;48.306;9.830;2022-10-16T13:56:09;20.70;99.90
21635;DHT22;10979;48.306;9.830;2022-10-16T13:58:36;20.60;99.90
21635;DHT22;10979;48.306;9.830;2022-10-16T14:01:14;20.60;99.90
21635;DHT22;10979;48.306;9.830;2022-10-16T14:03:41;20.50;99.90
21635;DHT22;10979;48.306;9.830;2022-10-16T14:06:15;20.60;99.90
21635;DHT22;10979;48.306;9.830;2022-10-16T14:08:44;20.80;99.90
21635;DHT22;10979;48.306;9.830;2022-10-16T14:11:11;20.90;99.90
21635;DHT22;10979;48.306;9.830;2022-10-16T14:13:45;21.00;99.90
21635;DHT22;10979;48.306;9.830;2022-10-16T14:16:17;21.00;99.90
21635;DHT22;10979;48.306;9.830;2022-10-16T14:18:55;21.00;99.90
21635;DHT22;10979;48.306;9.830;2022-10-16T14:21:21;21.20;99.90
21635;DHT22;10979;48.306;9.830;2022-10-16T14:23:47;21.30;99.90
21635;DHT22;10979;48.306;9.830;2022-10-16T14:26:15;21.20;99.90
21635;DHT22;10979;48.306;9.830;2022-10-16T14:28:41;21.20;99.90
21635;DHT22;10979;48.306;9.830;2022-10-16T14:31:33;21.20;99.90
21635;DHT22;10979;48.306;9.830;2022-10-16T14:33:59;21.00;99.90
21635;DHT22;10979;48.306;9.830;2022-10-16T14:36:28;20.70;99.90
21635;DHT22;10979;48.306;9.830;2022-10-16T14:39:17;20.50;99.90
21635;DHT22;10979;48.306;9.830;2022-10-16T14:41:48;20.40;99.90
21635;DHT22;10979;48.306;9.830;2022-10-16T14:44:17;20.30;99.90
21635;DHT22;10979;48.306;9.830;2022-10-16T14:46:43;20.20;99.90
21635;DHT22;10979;48.306;9.830;2022-10-16T14:51:36;20.20;99.90
21635;DHT22;10979;48.306;9.830;2022-10-16T14:54:02;20.10;99.90
21635;DHT22;10979;48.306;9.830;2022-10-16T14:56:32;20.00;99.90
21635;DHT22;10979;48.306;9.830;2022-10-16T14:59:00;19.80;99.90
21635;DHT22;10979;48.306;9.830;2022-10-16T15:01:26;19.80;99.90
21635;DHT22;10979;48.306;9.830;2022-10-16T15:03:51;19.80;99.90
21635;DHT22;10979;48.306;9.830;2022-10-16T15:06:19;19.80;99.90
21635;DHT22;10979;48.306;9.830;2022-10-16T15:08:45;19.80;99.90
21635;DHT22;10979;48.306;9.830;2022-10-16T15:11:18;19.80;99.90
21635;DHT22;10979;48.306;9.830;2022-10-16T15:13:44;19.90;99.90
21635;DHT22;10979;48.306;9.830;2022-10-16T15:16:15;20.00;99.90
21635;DHT22;10979;48.306;9.830;2022-10-16T15:18:41;20.10;99.90
21635;DHT22;10979;48.306;9.830;2022-10-16T15:21:23;20.20;99.90
21635;DHT22;10979;48.306;9.830;2022-10-16T15:23:49;20.10;99.90
21635;DHT22;10979;48.306;9.830;2022-10-16T15:26:16;20.10;99.90
21635;DHT22;10979;48.306;9.830;2022-10-16T15:28:41;20.00;99.90
21635;DHT22;10979;48.306;9.830;2022-10-16T15:31:07;19.80;99.90
21635;DHT22;10979;48.306;9.830;2022-10-16T15:33:33;19.60;99.90
21635;DHT22;10979;48.306;9.830;2022-10-16T15:36:00;19.40;99.90
21635;DHT22;10979;48.306;9.830;2022-10-16T15:38:27;19.10;99.90
21635;DHT22;10979;48.306;9.830;2022-10-16T15:40:53;19.00;99.90
21635;DHT22;10979;48.306;9.830;2022-10-16T15:43:18;18.80;99.90
21635;DHT22;10979;48.306;9.830;2022-10-16T15:45:47;18.60;99.90
21635;DHT22;10979;48.306;9.830;2022-10-16T15:48:19;18.40;99.90
21635;DHT22;10979;48.306;9.830;2022-10-16T15:50:45;18.30;99.90
21635;DHT22;10979;48.306;9.830;2022-10-16T15:53:10;18.20;99.90
21635;DHT22;10979;48.306;9.830;2022-10-16T15:55:36;18.40;99.90
21635;DHT22;10979;48.306;9.830;2022-10-16T15:58:03;18.50;99.90
21635;DHT22;10979;48.306;9.830;2022-10-16T16:00:29;18.40;99.90
21635;DHT22;10979;48.306;9.830;2022-10-16T16:02:56;18.20;99.90
21635;DHT22;10979;48.306;9.830;2022-10-16T16:05:22;17.70;99.90
21635;DHT22;10979;48.306;9.830;2022-10-16T16:07:48;17.40;99.90
21635;DHT22;10979;48.306;9.830;2022-10-16T16:10:14;17.20;99.90
21635;DHT22;10979;48.306;9.830;2022-10-16T16:12:39;17.10;99.90
21635;DHT22;10979;48.306;9.830;2022-10-16T16:15:07;17.00;99.90
21635;DHT22;10979;48.306;9.830;2022-10-16T16:17:33;17.90;99.90
21635;DHT22;10979;48.306;9.830;2022-10-16T16:19:59;18.50;99.90
21635;DHT22;10979;48.306;9.830;2022-10-16T16:22:24;18.40;99.90
21635;DHT22;10979;48.306;9.830;2022-10-16T16:24:50;18.30;99.90
21635;DHT22;10979;48.306;9.830;2022-10-16T16:27:16;18.00;99.90
21635;DHT22;10979;48.306;9.830;2022-10-16T16:29:42;17.20;99.90
21635;DHT22;10979;48.306;9.830;2022-10-16T16:32:07;16.70;99.90
21635;DHT22;10979;48.306;9.830;2022-10-16T16:34:33;16.50;99.90
21635;DHT22;10979;48.306;9.830;2022-10-16T16:36:59;16.10;99.90
21635;DHT22;10979;48.306;9.830;2022-10-16T16:39:24;15.90;99.90
21635;DHT22;10979;48.306;9.830;2022-10-16T16:41:50;15.70;99.90
21635;DHT22;10979;48.306;9.830;2022-10-16T16:44:18;15.60;99.90
21635;DHT22;10979;48.306;9.830;2022-10-16T16:46:44;15.50;99.90
21635;DHT22;10979;48.306;9.830;2022-10-16T16:49:11;15.30;99.90
21635;DHT22;10979;48.306;9.830;2022-10-16T16:51:38;15.30;99.90
21635;DHT22;10979;48.306;9.830;2022-10-16T16:54:04;15.10;99.90
21635;DHT22;10979;48.306;9.830;2022-10-16T16:56:31;15.00;99.90
21635;DHT22;10979;48.306;9.830;2022-10-16T16:59:00;14.90;99.90
21635;DHT22;10979;48.306;9.830;2022-10-16T17:01:26;14.90;99.90
21635;DHT22;10979;48.306;9.830;2022-10-16T17:03:54;14.80;99.90
21635;DHT22;10979;48.306;9.830;2022-10-16T17:06:21;14.80;99.90
21635;DHT22;10979;48.306;9.830;2022-10-16T17:08:48;14.50;99.90
21635;DHT22;10979;48.306;9.830;2022-10-16T17:11:20;14.50;99.90
21635;DHT22;10979;48.306;9.830;2022-10-16T17:13:47;14.60;99.90
21635;DHT22;10979;48.306;9.830;2022-10-16T17:16:12;14.60;99.90
21635;DHT22;10979;48.306;9.830;2022-10-16T17:18:38;14.30;99.90
21635;DHT22;10979;48.306;9.830;2022-10-16T17:21:06;14.30;99.90
21635;DHT22;10979;48.306;9.830;2022-10-16T17:23:34;14.10;99.90
21635;DHT22;10979;48.306;9.830;2022-10-16T17:26:13;13.80;99.90
21635;DHT22;10979;48.306;9.830;2022-10-16T17:28:40;13.70;99.90
21635;DHT22;10979;48.306;9.830;2022-10-16T17:31:12;13.70;99.90
21635;DHT22;10979;48.306;9.830;2022-10-16T17:33:38;13.70;99.90
21635;DHT22;10979;48.306;9.830;2022-10-16T17:36:05;13.70;99.90
21635;DHT22;10979;48.306;9.830;2022-10-16T17:38:30;13.60;99.90
21635;DHT22;10979;48.306;9.830;2022-10-16T17:40:56;13.40;99.90
21635;DHT22;10979;48.306;9.830;2022-10-16T17:43:22;13.40;99.90
21635;DHT22;10979;48.306;9.830;2022-10-16T17:45:47;13.30;99.90
21635;DHT22;10979;48.306;9.830;2022-10-16T17:48:13;13.20;99.90
21635;DHT22;10979;48.306;9.830;2022-10-16T17:50:42;13.10;99.90
21635;DHT22;10979;48.306;9.830;2022-10-16T17:53:08;13.00;99.90
21635;DHT22;10979;48.306;9.830;2022-10-16T17:55:40;13.10;99.90
21635;DHT22;10979;48.306;9.830;2022-10-16T17:58:07;13.10;99.90
21635;DHT22;10979;48.306;9.830;2022-10-16T18:00:33;12.80;99.90
21635;DHT22;10979;48.306;9.830;2022-10-16T18:02:59;12.60;99.90
21635;DHT22;10979;48.306;9.830;2022-10-16T18:05:25;12.50;99.90
21635;DHT22;10979;48.306;9.830;2022-10-16T18:07:50;12.50;99.90
21635;DHT22;10979;48.306;9.830;2022-10-16T18:10:17;12.40;99.90